Time;durP1;ratioP1;P1;durP2;ratioP2;P2;SDS_P1;SDS_P2;PMS_P1;PMS_P2;Temp;Humidity;BMP_temperature;BMP_pressure;BME280_temperature;BME280_humidity;BME280_pressure;Samples;Min_cycle;Max_cycle;Signal;HPM_P1;HPM_P2
2024/01/16 00:02:05;;;;;;;6.60;4.85;;;;;0.20;97856.00;;;;5074988;28;20076;-64
2024/01/16 00:04:32;;;;;;;11.05;4.93;;;;;0.20;97857.00;;;;5074350;28;20064;-64
2024/01/16 00:06:58;;;;;;;8.15;4.93;;;;;0.20;97856.00;;;;5073712;28;20386;-64
2024/01/16 00:09:25;;;;;;;10.98;5.22;;;;;0.20;97857.00;;;;5074590;28;20044;-64
2024/01/16 00:11:52;;;;;;;10.02;4.70;;;;;0.20;97857.00;;;;5075031;28;20040;-64
2024/01/16 00:14:18;;;;;;;9.20;5.22;;;;;0.20;97853.00;;;;5072867;28;20048;-64
2024/01/16 00:16:46;;;;;;;6.57;4.63;;;;;0.20;97872.00;;;;5057084;28;20036;-64
2024/01/16 00:19:13;;;;;;;9.25;5.10;;;;;0.20;97873.00;;;;5073625;28;20467;-64
2024/01/16 00:21:47;;;;;;;7.22;4.90;;;;;0.40;97872.00;;;;5073036;28;20049;-64
2024/01/16 00:24:14;;;;;;;9.57;5.07;;;;;0.40;97875.00;;;;5072568;28;20040;-65
2024/01/16 00:26:40;;;;;;;7.22;5.13;;;;;0.50;97878.00;;;;5072693;28;20106;-64
2024/01/16 00:29:09;;;;;;;7.25;4.80;;;;;0.50;97876.00;;;;5072839;28;20044;-64
2024/01/16 00:31:35;;;;;;;9.10;5.10;;;;;0.60;97875.00;;;;5073164;28;20411;-64
2024/01/16 00:34:03;;;;;;;10.35;5.35;;;;;0.60;97865.00;;;;5071620;28;20139;-64
2024/01/16 00:36:30;;;;;;;7.13;4.57;;;;;0.70;97879.00;;;;5055754;28;20139;-64
2024/01/16 00:38:57;;;;;;;7.75;5.38;;;;;0.70;97875.00;;;;5071890;28;20055;-65
2024/01/16 00:41:24;;;;;;;10.75;5.15;;;;;0.60;97888.00;;;;5073416;28;20123;-64
2024/01/16 00:43:50;;;;;;;8.40;5.10;;;;;0.60;97875.00;;;;5072624;28;20051;-64
2024/01/16 00:46:17;;;;;;;11.32;5.00;;;;;0.60;97872.00;;;;5072618;28;20498;-64
2024/01/16 00:48:43;;;;;;;8.73;5.03;;;;;0.50;97871.00;;;;5075606;28;20534;-64
2024/01/16 00:51:10;;;;;;;6.68;4.65;;;;;0.40;97876.00;;;;5075464;28;20056;-64
2024/01/16 00:53:43;;;;;;;8.63;4.53;;;;;0.30;97869.00;;;;5075544;28;20555;-64
2024/01/16 00:56:10;;;;;;;9.80;5.95;;;;;0.30;97874.00;;;;5074765;28;20531;-64
2024/01/16 00:58:37;;;;;;;10.93;5.18;;;;;0.20;97863.00;;;;5071639;28;20485;-64
2024/01/16 01:01:04;;;;;;;9.18;4.55;;;;;0.20;97863.00;;;;5072707;28;20051;-64
2024/01/16 01:03:31;;;;;;;8.13;4.93;;;;;0.20;97873.00;;;;5054333;28;20519;-64
2024/01/16 01:05:59;;;;;;;7.35;5.38;;;;;0.20;97877.00;;;;5070675;28;20135;-64
2024/01/16 01:08:26;;;;;;;8.48;5.28;;;;;0.30;97882.00;;;;5072504;28;20568;-64
2024/01/16 01:10:55;;;;;;;9.27;4.53;;;;;0.30;97874.00;;;;5074958;28;20409;-64
2024/01/16 01:13:22;;;;;;;10.40;4.93;;;;;0.40;97877.00;;;;5077286;28;20132;-64
2024/01/16 01:15:49;;;;;;;9.68;4.97;;;;;0.50;97888.00;;;;5077295;28;20452;-64
2024/01/16 01:18:16;;;;;;;13.27;5.28;;;;;0.50;97892.00;;;;5077055;28;20036;-64
2024/01/16 01:20:42;;;;;;;7.65;5.30;;;;;0.60;97884.00;;;;5077529;28;20159;-64
2024/01/16 01:23:09;;;;;;;9.57;5.70;;;;;0.60;97891.00;;;;5078194;28;20048;-64
2024/01/16 01:25:36;;;;;;;12.25;5.70;;;;;0.60;97887.00;;;;5077649;28;20635;-64
2024/01/16 01:28:03;;;;;;;7.07;4.75;;;;;0.60;97901.00;;;;5078078;28;20067;-64
2024/01/16 01:30:30;;;;;;;11.05;4.90;;;;;0.70;97896.00;;;;5077913;28;20050;-64
2024/01/16 01:32:56;;;;;;;8.43;5.38;;;;;0.70;97894.00;;;;5076903;28;20505;-64
2024/01/16 01:35:23;;;;;;;7.18;5.20;;;;;0.80;97894.00;;;;5076367;28;20055;-64
2024/01/16 01:37:50;;;;;;;10.43;5.13;;;;;0.80;97896.00;;;;5076588;28;20048;-64
2024/01/16 01:40:17;;;;;;;9.20;5.32;;;;;0.80;97906.00;;;;5078178;28;20094;-64
2024/01/16 01:42:43;;;;;;;11.18;5.90;;;;;0.80;97904.00;;;;5076634;28;20508;-64
2024/01/16 01:45:11;;;;;;;8.73;4.68;;;;;0.80;97890.00;;;;5076071;28;20520;-64
2024/01/16 01:47:39;;;;;;;9.35;5.03;;;;;0.80;97898.00;;;;5076973;28;20124;-64
2024/01/16 01:50:07;;;;;;;10.88;5.07;;;;;0.80;97897.00;;;;5077988;28;20040;-64
2024/01/16 01:52:38;;;;;;;12.35;5.40;;;;;0.80;97899.00;;;;5077052;28;20119;-64
2024/01/16 01:55:07;;;;;;;9.27;5.38;;;;;0.80;97906.00;;;;5076876;28;20045;-64
2024/01/16 01:57:34;;;;;;;8.75;5.43;;;;;0.70;97900.00;;;;5077614;28;20037;-64
2024/01/16 02:00:03;;;;;;;8.88;5.15;;;;;0.70;97910.00;;;;5076594;28;20044;-64
2024/01/16 02:02:40;;;;;;;9.30;5.28;;;;;0.60;97918.00;;;;5077840;28;20052;-64
2024/01/16 02:05:07;;;;;;;10.35;5.15;;;;;0.60;97907.00;;;;5059871;28;20136;-64
2024/01/16 02:07:34;;;;;;;8.85;5.28;;;;;0.60;97917.00;;;;5077347;28;20040;-64
2024/01/16 02:10:01;;;;;;;9.80;5.60;;;;;0.70;97917.00;;;;5077575;28;20040;-64
2024/01/16 02:12:28;;;;;;;10.65;5.57;;;;;0.70;97925.00;;;;5076043;28;20123;-64
2024/01/16 02:14:54;;;;;;;12.10;5.50;;;;;0.70;97917.00;;;;5075568;28;20091;-64
2024/01/16 02:17:21;;;;;;;11.75;5.80;;;;;0.70;97919.00;;;;5075343;28;20106;-64
2024/01/16 02:19:48;;;;;;;10.00;5.57;;;;;0.70;97918.00;;;;5075036;28;20052;-64
2024/01/16 02:22:19;;;;;;;8.52;5.47;;;;;0.70;97925.00;;;;5074454;28;20052;-64
2024/01/16 02:24:46;;;;;;;10.05;4.55;;;;;0.70;97918.00;;;;5074710;28;20127;-64
2024/01/16 02:27:13;;;;;;;9.65;5.10;;;;;0.80;97933.00;;;;5076644;28;20131;-64
2024/01/16 02:29:42;;;;;;;11.98;5.85;;;;;0.80;97924.00;;;;5076604;28;20127;-64
2024/01/16 02:32:12;;;;;;;9.80;5.63;;;;;0.80;97919.00;;;;5076556;28;20527;-64
2024/01/16 02:34:41;;;;;;;8.05;4.93;;;;;0.80;97928.00;;;;5074992;28;20040;-64
2024/01/16 02:37:08;;;;;;;6.82;5.05;;;;;0.80;97924.00;;;;5076225;28;20037;-64
2024/01/16 02:39:35;;;;;;;15.15;6.38;;;;;0.80;97918.00;;;;5076219;28;20486;-64
2024/01/16 02:42:01;;;;;;;8.85;5.55;;;;;0.80;97923.00;;;;5058560;28;20394;-64
2024/01/16 02:44:28;;;;;;;8.80;5.60;;;;;0.90;97928.00;;;;5074964;28;20048;-64
2024/01/16 02:46:54;;;;;;;10.85;5.82;;;;;0.90;97922.00;;;;5076459;28;20076;-64
2024/01/16 02:49:21;;;;;;;9.52;5.65;;;;;0.90;97935.00;;;;5076208;28;20086;-64
2024/01/16 02:51:48;;;;;;;12.13;6.07;;;;;0.90;97923.00;;;;5076133;28;20123;-64
2024/01/16 02:54:15;;;;;;;12.50;6.35;;;;;0.90;97929.00;;;;5074340;28;20044;-64
2024/01/16 02:56:42;;;;;;;9.63;5.65;;;;;0.90;97926.00;;;;5075248;28;20045;-64
2024/01/16 02:59:09;;;;;;;9.23;5.75;;;;;1.00;97927.00;;;;5074537;28;20044;-64
2024/01/16 03:01:36;;;;;;;8.98;5.53;;;;;1.00;97927.00;;;;5074330;28;20045;-64
2024/01/16 03:04:03;;;;;;;8.25;6.10;;;;;0.90;97937.00;;;;5074049;28;20048;-64
2024/01/16 03:06:30;;;;;;;11.18;5.72;;;;;0.90;97927.00;;;;5076252;28;20501;-64
2024/01/16 03:08:57;;;;;;;10.18;5.95;;;;;0.90;97939.00;;;;5074501;28;20033;-64
2024/01/16 03:11:24;;;;;;;10.50;5.97;;;;;0.80;97934.00;;;;5075153;28;20057;-64
2024/01/16 03:13:53;;;;;;;11.25;5.85;;;;;0.80;97927.00;;;;5073082;28;20052;-64
2024/01/16 03:16:19;;;;;;;10.40;5.85;;;;;0.80;97927.00;;;;5072453;28;20048;-64
2024/01/16 03:18:47;;;;;;;11.07;6.95;;;;;0.80;97930.00;;;;5073371;28;20097;-64
2024/01/16 03:21:14;;;;;;;9.80;5.70;;;;;0.90;97929.00;;;;5073454;28;20052;-64
2024/01/16 03:23:40;;;;;;;8.18;5.00;;;;;0.80;97929.00;;;;5073571;28;20125;-64
2024/01/16 03:26:12;;;;;;;12.07;6.43;;;;;0.80;97927.00;;;;5074974;28;20052;-64
2024/01/16 03:28:39;;;;;;;9.93;5.57;;;;;0.90;97930.00;;;;5073909;28;20036;-64
2024/01/16 03:31:06;;;;;;;11.38;6.63;;;;;0.90;97924.00;;;;5072022;28;20068;-64
2024/01/16 03:33:34;;;;;;;12.63;6.75;;;;;0.90;97919.00;;;;5070720;28;20080;-64
2024/01/16 03:36:01;;;;;;;14.18;6.35;;;;;0.90;97926.00;;;;5071896;28;20058;-64
2024/01/16 03:38:27;;;;;;;12.38;6.70;;;;;0.90;97925.00;;;;5073023;28;20040;-64
2024/01/16 03:40:54;;;;;;;10.02;6.10;;;;;0.80;97937.00;;;;5071823;28;20101;-64
2024/01/16 03:43:21;;;;;;;13.48;6.05;;;;;0.80;97934.00;;;;5072924;28;20064;-63
2024/01/16 03:45:47;;;;;;;12.80;6.60;;;;;0.80;97930.00;;;;5072664;28;20094;-64
2024/01/16 03:48:14;;;;;;;9.75;6.10;;;;;0.80;97926.00;;;;5071671;28;20071;-64
2024/01/16 03:50:43;;;;;;;9.48;5.80;;;;;0.80;97925.00;;;;5071340;28;20079;-64
2024/01/16 03:53:10;;;;;;;12.13;6.97;;;;;0.70;97931.00;;;;5073186;28;20055;-64
2024/01/16 03:55:37;;;;;;;10.40;6.00;;;;;0.70;97928.00;;;;5072432;28;20113;-64
2024/01/16 03:58:03;;;;;;;9.43;5.28;;;;;0.70;97930.00;;;;5071556;28;20041;-64
2024/01/16 04:00:30;;;;;;;10.40;5.68;;;;;0.70;97928.00;;;;5072934;28;20075;-64
2024/01/16 04:02:57;;;;;;;11.10;5.68;;;;;0.70;97919.00;;;;5071516;28;20048;-64
2024/01/16 04:05:23;;;;;;;10.32;5.80;;;;;0.70;97930.00;;;;5071975;28;20097;-64
2024/01/16 04:07:50;;;;;;;14.73;6.82;;;;;0.70;97929.00;;;;5071450;28;20052;-64
2024/01/16 04:10:17;;;;;;;10.98;5.63;;;;;0.70;97921.00;;;;5072481;28;20106;-64
2024/01/16 04:12:44;;;;;;;8.52;5.90;;;;;0.70;97926.00;;;;5071497;28;20082;-64
2024/01/16 04:15:10;;;;;;;14.10;6.03;;;;;0.70;97914.00;;;;5072070;28;20044;-64
2024/01/16 04:17:37;;;;;;;11.00;5.85;;;;;0.70;97922.00;;;;5072430;28;20405;-64
2024/01/16 04:20:06;;;;;;;12.18;5.80;;;;;0.60;97930.00;;;;5072390;28;20055;-64
2024/01/16 04:22:33;;;;;;;8.52;5.50;;;;;0.60;97913.00;;;;5072593;28;20040;-64
2024/01/16 04:25:00;;;;;;;9.90;5.75;;;;;0.60;97907.00;;;;5071808;28;20041;-64
2024/01/16 04:27:27;;;;;;;11.23;5.72;;;;;0.50;97914.00;;;;5072405;28;20044;-64
2024/01/16 04:29:53;;;;;;;8.40;5.82;;;;;0.50;97919.00;;;;5072662;28;20508;-64
2024/01/16 04:32:20;;;;;;;10.80;5.72;;;;;0.40;97918.00;;;;5071146;28;20416;-64
2024/01/16 04:34:46;;;;;;;8.95;5.65;;;;;0.40;97911.00;;;;5071945;28;20051;-64
2024/01/16 04:37:13;;;;;;;10.95;5.90;;;;;0.30;97911.00;;;;5071272;28;20139;-64
2024/01/16 04:39:40;;;;;;;11.18;6.28;;;;;0.30;97905.00;;;;5070855;28;20493;-64
2024/01/16 04:42:06;;;;;;;12.52;6.43;;;;;0.30;97886.00;;;;5072261;28;20094;-64
2024/01/16 04:44:33;;;;;;;12.32;5.93;;;;;0.30;97885.00;;;;5070994;28;20456;-64
2024/01/16 04:46:59;;;;;;;14.38;5.88;;;;;0.30;97876.00;;;;5072064;28;20037;-63
2024/01/16 04:49:26;;;;;;;9.43;5.57;;;;;0.30;97883.00;;;;5072002;28;20045;-63
2024/01/16 04:51:53;;;;;;;11.77;6.45;;;;;0.20;97882.00;;;;5072304;28;20053;-64
2024/01/16 04:54:19;;;;;;;9.93;6.28;;;;;0.30;97890.00;;;;5071730;28;20577;-63
2024/01/16 04:56:46;;;;;;;12.23;5.70;;;;;0.20;97887.00;;;;5070871;28;20048;-64
2024/01/16 04:59:13;;;;;;;9.98;6.15;;;;;0.30;97883.00;;;;5070485;28;20045;-64
2024/01/16 05:01:42;;;;;;;9.88;5.85;;;;;0.30;97885.00;;;;5070787;28;20134;-63
2024/01/16 05:04:10;;;;;;;12.15;6.07;;;;;0.30;97879.00;;;;5070181;28;20048;-63
2024/01/16 05:06:37;;;;;;;12.30;6.25;;;;;0.20;97869.00;;;;5071078;28;20045;-63
2024/01/16 05:09:03;;;;;;;9.85;6.38;;;;;0.20;97871.00;;;;5070727;28;20092;-64
2024/01/16 05:11:36;;;;;;;11.13;6.03;;;;;0.20;97862.00;;;;5071822;28;20052;-64
2024/01/16 05:14:02;;;;;;;9.65;5.97;;;;;0.10;97863.00;;;;5070116;28;20508;-63
2024/01/16 05:16:29;;;;;;;11.48;5.97;;;;;0.10;97862.00;;;;5071949;28;20518;-63
2024/01/16 05:18:56;;;;;;;11.80;6.57;;;;;0.00;97862.00;;;;5070560;28;20041;-64
2024/01/16 05:21:23;;;;;;;10.02;5.50;;;;;0.00;97857.00;;;;5070820;28;20052;-64
2024/01/16 05:23:50;;;;;;;15.93;6.88;;;;;0.00;97851.00;;;;5070364;28;20466;-64
2024/01/16 05:26:17;;;;;;;11.13;6.13;;;;;0.00;97852.00;;;;5070635;28;20044;-64
2024/01/16 05:28:43;;;;;;;14.35;6.57;;;;;0.00;97857.00;;;;5070469;28;20433;-64
2024/01/16 05:31:10;;;;;;;12.43;6.30;;;;;0.00;97850.00;;;;5070247;28;20098;-64
2024/01/16 05:33:41;;;;;;;12.15;6.28;;;;;0.00;97846.00;;;;5069887;28;20053;-64
2024/01/16 05:36:07;;;;;;;8.43;6.15;;;;;-0.10;97841.00;;;;5070547;28;20050;-64
2024/01/16 05:38:35;;;;;;;9.02;5.93;;;;;-0.10;97836.00;;;;5070352;28;20040;-63
2024/01/16 05:41:04;;;;;;;15.02;6.63;;;;;-0.10;97840.00;;;;5070197;28;20048;-64
2024/01/16 05:43:30;;;;;;;9.23;5.65;;;;;-0.10;97849.00;;;;5071218;28;20123;-64
2024/01/16 05:45:57;;;;;;;11.80;6.20;;;;;-0.10;97836.00;;;;5070356;28;20087;-64
2024/01/16 05:48:24;;;;;;;12.38;7.10;;;;;-0.20;97833.00;;;;5071683;28;20494;-65
2024/01/16 05:50:51;;;;;;;10.60;6.53;;;;;-0.20;97835.00;;;;5071757;28;20114;-65
2024/01/16 05:53:20;;;;;;;17.33;7.22;;;;;-0.20;97838.00;;;;5070089;28;20049;-64
2024/01/16 05:55:46;;;;;;;12.63;7.38;;;;;-0.20;97832.00;;;;5070225;28;20076;-64
2024/01/16 05:58:13;;;;;;;15.23;7.38;;;;;-0.20;97820.00;;;;5074019;28;20549;-65
2024/01/16 06:00:40;;;;;;;14.07;7.82;;;;;-0.20;97820.00;;;;5075208;28;20153;-64
2024/01/16 06:03:07;;;;;;;13.88;6.47;;;;;-0.10;97822.00;;;;5073973;28;20067;-65
2024/01/16 06:05:34;;;;;;;10.43;6.72;;;;;-0.10;97827.00;;;;5072761;28;20049;-63
2024/01/16 06:08:00;;;;;;;10.90;6.03;;;;;0.00;97831.00;;;;5073814;28;20045;-64
2024/01/16 06:10:27;;;;;;;14.90;5.97;;;;;0.00;97820.00;;;;5074987;28;20045;-63
2024/01/16 06:12:53;;;;;;;15.75;6.50;;;;;0.00;97819.00;;;;5073517;28;20489;-64
2024/01/16 06:15:20;;;;;;;13.70;8.45;;;;;0.00;97827.00;;;;5073379;28;20068;-64
2024/01/16 06:17:46;;;;;;;12.32;6.85;;;;;0.00;97821.00;;;;5075534;28;20508;-64
2024/01/16 06:20:13;;;;;;;11.55;6.20;;;;;-0.10;97816.00;;;;5075030;28;20055;-64
2024/01/16 06:22:40;;;;;;;10.90;5.28;;;;;-0.10;97819.00;;;;5075299;28;20054;-64
2024/01/16 06:25:07;;;;;;;10.93;6.05;;;;;-0.10;97808.00;;;;5073383;28;20072;-64
2024/01/16 06:27:37;;;;;;;16.05;5.97;;;;;-0.10;97816.00;;;;5057446;28;20147;-64
2024/01/16 06:30:04;;;;;;;11.38;6.20;;;;;0.00;97823.00;;;;5073994;28;20086;-64
2024/01/16 06:32:31;;;;;;;11.13;5.95;;;;;0.00;97812.00;;;;5074899;28;20068;-64
2024/01/16 06:34:58;;;;;;;15.82;7.28;;;;;0.00;97812.00;;;;5073078;28;20127;-64
2024/01/16 06:37:24;;;;;;;11.88;6.13;;;;;0.00;97818.00;;;;5075235;28;20045;-64
2024/01/16 06:39:51;;;;;;;8.80;6.32;;;;;0.00;97818.00;;;;5074868;28;20040;-64
2024/01/16 06:42:17;;;;;;;13.15;6.93;;;;;0.00;97827.00;;;;5075451;28;20047;-64
2024/01/16 06:44:46;;;;;;;11.75;6.07;;;;;-0.10;97812.00;;;;5074545;28;20089;-64
2024/01/16 06:47:13;;;;;;;15.63;6.50;;;;;0.00;97803.00;;;;5074944;28;20037;-64
2024/01/16 06:49:39;;;;;;;11.38;6.05;;;;;0.00;97804.00;;;;5073691;28;20071;-64
2024/01/16 06:52:08;;;;;;;11.10;6.07;;;;;0.00;97811.00;;;;5074729;28;20040;-64
2024/01/16 06:54:34;;;;;;;11.73;6.50;;;;;-0.10;97816.00;;;;5074429;28;20040;-64
2024/01/16 06:57:01;;;;;;;8.32;5.57;;;;;-0.10;97818.00;;;;5075275;28;20048;-64
2024/01/16 06:59:28;;;;;;;12.00;6.22;;;;;0.00;97809.00;;;;5074919;28;20094;-63
2024/01/16 07:01:55;;;;;;;9.23;5.97;;;;;0.00;97804.00;;;;5072909;28;20079;-64
2024/01/16 07:04:21;;;;;;;13.00;6.43;;;;;0.00;97821.00;;;;5073769;28;20053;-64
2024/01/16 07:06:48;;;;;;;16.83;6.72;;;;;0.00;97815.00;;;;5074254;28;20135;-64
2024/01/16 07:09:16;;;;;;;12.88;6.70;;;;;0.00;97811.00;;;;5073693;28;20102;-63
2024/01/16 07:11:42;;;;;;;13.35;7.22;;;;;0.10;97824.00;;;;5074230;28;20128;-63
2024/01/16 07:14:10;;;;;;;10.55;7.00;;;;;0.10;97811.00;;;;5074213;28;20041;-63
2024/01/16 07:16:36;;;;;;;15.20;8.23;;;;;0.10;97821.00;;;;5074785;28;20588;-64
2024/01/16 07:19:03;;;;;;;14.32;6.78;;;;;0.10;97822.00;;;;5073292;28;20158;-64
2024/01/16 07:21:30;;;;;;;13.35;8.07;;;;;0.10;97808.00;;;;5074725;28;20467;-64
2024/01/16 07:23:57;;;;;;;12.98;8.07;;;;;0.10;97814.00;;;;5074238;28;20070;-64
2024/01/16 07:26:24;;;;;;;14.30;8.15;;;;;0.20;97807.00;;;;5073832;28;20425;-63
2024/01/16 07:28:51;;;;;;;14.05;7.50;;;;;0.20;97802.00;;;;5072430;28;20059;-63
2024/01/16 07:31:18;;;;;;;12.25;6.30;;;;;0.10;97808.00;;;;5055954;28;20057;-63
2024/01/16 07:33:45;;;;;;;17.95;8.13;;;;;0.20;97809.00;;;;5072025;28;20532;-64
2024/01/16 07:36:12;;;;;;;13.13;7.50;;;;;0.20;97807.00;;;;5074016;28;20040;-64
2024/01/16 07:38:38;;;;;;;11.50;7.20;;;;;0.20;97812.00;;;;5072440;28;20045;-63
2024/01/16 07:41:06;;;;;;;12.95;7.07;;;;;0.20;97808.00;;;;5074663;28;20064;-64
2024/01/16 07:43:33;;;;;;;14.10;6.28;;;;;0.20;97824.00;;;;5073892;28;20041;-63
2024/01/16 07:46:00;;;;;;;14.13;6.55;;;;;0.20;97822.00;;;;5073983;28;20051;-64
2024/01/16 07:48:30;;;;;;;14.00;8.20;;;;;0.30;97830.00;;;;5072028;28;20139;-64
2024/01/16 07:50:57;;;;;;;19.17;11.23;;;;;0.30;97832.00;;;;5073301;28;20139;-64
2024/01/16 07:53:28;;;;;;;16.98;9.45;;;;;0.30;97838.00;;;;5072821;28;20569;-64
2024/01/16 07:55:55;;;;;;;13.80;8.75;;;;;0.30;97842.00;;;;5073085;28;20468;-64
2024/01/16 07:58:22;;;;;;;11.20;7.18;;;;;0.40;97841.00;;;;5072727;28;20040;-64
2024/01/16 08:00:49;;;;;;;16.80;8.52;;;;;0.50;97854.00;;;;5072919;28;20487;-64
2024/01/16 08:03:15;;;;;;;14.88;8.57;;;;;0.50;97849.00;;;;5071419;28;20102;-64
2024/01/16 08:05:42;;;;;;;11.23;7.18;;;;;0.50;97852.00;;;;5072233;28;20067;-62
2024/01/16 08:08:09;;;;;;;13.82;8.45;;;;;0.50;97849.00;;;;5072590;28;20045;-62
2024/01/16 08:10:36;;;;;;;13.40;7.28;;;;;0.60;97856.00;;;;5071068;28;20150;-62
2024/01/16 08:13:03;;;;;;;11.20;6.53;;;;;0.60;97865.00;;;;5071117;28;20139;-62
2024/01/16 08:15:30;;;;;;;11.63;7.43;;;;;0.60;97857.00;;;;5070723;28;20044;-61
2024/01/16 08:17:56;;;;;;;13.93;7.55;;;;;0.60;97860.00;;;;5072536;28;20533;-62
2024/01/16 08:20:23;;;;;;;13.95;7.30;;;;;0.60;97866.00;;;;5072360;28;20116;-62
2024/01/16 08:22:50;;;;;;;17.90;8.50;;;;;0.60;97858.00;;;;5072555;28;20465;-62
2024/01/16 08:25:17;;;;;;;16.02;7.63;;;;;0.60;97866.00;;;;5070678;28;20063;-61
2024/01/16 08:27:43;;;;;;;11.93;7.43;;;;;0.60;97870.00;;;;5072158;28;20120;-62
2024/01/16 08:30:12;;;;;;;12.32;7.60;;;;;0.60;97862.00;;;;5072250;28;20105;-62
2024/01/16 08:32:39;;;;;;;13.55;7.65;;;;;0.70;97863.00;;;;5072188;28;20109;-62
2024/01/16 08:35:06;;;;;;;12.07;7.93;;;;;0.70;97863.00;;;;5071477;28;20051;-62
2024/01/16 08:37:34;;;;;;;19.45;8.38;;;;;0.70;97860.00;;;;5072059;28;20421;-62
2024/01/16 08:40:01;;;;;;;12.80;7.43;;;;;0.70;97864.00;;;;5071809;28;20044;-63
2024/01/16 08:42:27;;;;;;;12.93;8.07;;;;;0.80;97866.00;;;;5071972;28;20129;-62
2024/01/16 08:44:54;;;;;;;12.60;7.55;;;;;0.90;97873.00;;;;5071372;28;20076;-63
2024/01/16 08:47:20;;;;;;;14.23;7.40;;;;;1.00;97882.00;;;;5072036;28;20044;-62
2024/01/16 08:49:48;;;;;;;14.82;8.80;;;;;1.00;97876.00;;;;5071932;28;20044;-62
2024/01/16 08:52:15;;;;;;;13.82;8.45;;;;;1.00;97877.00;;;;5070760;28;20056;-63
2024/01/16 08:54:42;;;;;;;14.90;8.10;;;;;1.00;97887.00;;;;5071253;28;20451;-62
2024/01/16 08:57:10;;;;;;;13.10;8.05;;;;;1.00;97889.00;;;;5071819;28;20127;-62
2024/01/16 08:59:40;;;;;;;13.38;8.05;;;;;1.10;97888.00;;;;5070700;28;20485;-63
2024/01/16 09:02:07;;;;;;;17.27;8.63;;;;;1.20;97884.00;;;;5070818;28;20542;-62
2024/01/16 09:04:34;;;;;;;15.32;7.88;;;;;1.30;97878.00;;;;5069869;28;20052;-62
2024/01/16 09:07:01;;;;;;;15.60;7.75;;;;;1.40;97896.00;;;;5071919;28;20459;-62
2024/01/16 09:09:28;;;;;;;13.18;8.48;;;;;1.50;97893.00;;;;5071647;28;20036;-62
2024/01/16 09:11:54;;;;;;;20.80;8.52;;;;;1.50;97897.00;;;;5071657;28;20041;-62
2024/01/16 09:14:21;;;;;;;15.73;8.43;;;;;1.50;97888.00;;;;5071252;28;20044;-62
2024/01/16 09:16:48;;;;;;;17.92;8.82;;;;;1.50;97894.00;;;;5070600;28;20041;-62
2024/01/16 09:19:17;;;;;;;17.02;7.85;;;;;1.50;97908.00;;;;5071551;28;20044;-62
2024/01/16 09:21:43;;;;;;;13.65;8.50;;;;;1.60;97903.00;;;;5071570;28;20485;-62
2024/01/16 09:24:12;;;;;;;15.15;8.13;;;;;1.60;97889.00;;;;5052992;28;20054;-62
2024/01/16 09:26:39;;;;;;;15.15;8.32;;;;;1.70;97895.00;;;;5070366;28;20087;-62
2024/01/16 09:29:05;;;;;;;12.07;7.90;;;;;1.80;97881.00;;;;5071576;28;20507;-62
2024/01/16 09:31:32;;;;;;;15.35;8.98;;;;;1.90;97893.00;;;;5073362;28;20127;-62
2024/01/16 09:33:59;;;;;;;15.57;8.70;;;;;2.00;97885.00;;;;5073717;28;20044;-62
2024/01/16 09:36:25;;;;;;;16.40;11.18;;;;;2.10;97879.00;;;;5075382;28;20047;-62
2024/01/16 09:38:52;;;;;;;19.38;9.95;;;;;2.20;97884.00;;;;5075136;28;20534;-62
2024/01/16 09:41:19;;;;;;;21.77;10.30;;;;;2.30;97879.00;;;;5075258;28;20686;-62
2024/01/16 09:43:47;;;;;;;16.63;8.55;;;;;2.30;97873.00;;;;5074710;28;20044;-61
2024/01/16 09:46:15;;;;;;;16.35;9.13;;;;;2.30;97863.00;;;;5073914;28;20520;-61
2024/01/16 09:48:45;;;;;;;14.88;8.25;;;;;2.20;97865.00;;;;5075319;28;20048;-62
2024/01/16 09:51:16;;;;;;;18.88;9.73;;;;;2.20;97873.00;;;;5075336;28;20128;-61
2024/01/16 09:53:42;;;;;;;15.57;8.30;;;;;2.20;97879.00;;;;5074560;28;20052;-61
2024/01/16 09:56:24;;;;;;;13.07;8.35;;;;;2.20;97879.00;;;;5074083;28;20408;-61
2024/01/16 09:59:01;;;;;;;17.70;8.73;;;;;2.30;97874.00;;;;5074948;28;20408;-61
2024/01/16 10:01:28;;;;;;;16.25;9.23;;;;;2.30;97871.00;;;;5073627;28;20059;-61
2024/01/16 10:03:55;;;;;;;13.85;8.73;;;;;2.40;97877.00;;;;5074478;28;20086;-61
2024/01/16 10:06:23;;;;;;;17.55;7.75;;;;;2.40;97869.00;;;;5075011;28;20040;-61
2024/01/16 10:08:50;;;;;;;15.25;8.77;;;;;2.50;97859.00;;;;5057071;28;20056;-61
2024/01/16 10:11:17;;;;;;;17.60;8.27;;;;;2.60;97856.00;;;;5074756;28;20460;-61
2024/01/16 10:13:47;;;;;;;19.95;9.77;;;;;2.70;97858.00;;;;5074542;28;20078;-61
2024/01/16 10:16:17;;;;;;;16.27;8.77;;;;;2.80;97864.00;;;;5075401;28;20044;-61
2024/01/16 10:18:44;;;;;;;12.85;7.90;;;;;2.80;97874.00;;;;5075445;28;20057;-61
2024/01/16 10:21:29;;;;;;;17.15;8.50;;;;;2.90;97869.00;;;;5074956;28;20060;-61
2024/01/16 10:24:10;;;;;;;18.20;8.65;;;;;3.00;97861.00;;;;5073414;28;20051;-62
2024/01/16 10:26:36;;;;;;;16.13;8.38;;;;;3.00;97865.00;;;;5075018;28;20052;-62
2024/01/16 10:29:06;;;;;;;17.08;9.55;;;;;3.20;97851.00;;;;5076632;28;20040;-62
2024/01/16 10:31:33;;;;;;;16.52;9.30;;;;;3.30;97848.00;;;;5077518;28;20075;-62
2024/01/16 10:33:59;;;;;;;15.40;8.38;;;;;3.50;97844.00;;;;5082509;28;20059;-61
2024/01/16 10:36:26;;;;;;;18.73;8.75;;;;;3.60;97839.00;;;;5085471;28;20140;-62
2024/01/16 10:39:03;;;;;;;20.13;9.20;;;;;3.70;97844.00;;;;5082380;28;20097;-62
2024/01/16 10:41:29;;;;;;;20.00;10.70;;;;;3.80;97843.00;;;;5082049;28;20048;-61
2024/01/16 10:44:09;;;;;;;20.90;10.73;;;;;3.80;97834.00;;;;5078455;28;20405;-61
2024/01/16 10:46:36;;;;;;;17.67;9.52;;;;;3.70;97833.00;;;;5078652;28;20117;-61
2024/01/16 10:49:04;;;;;;;27.17;15.73;;;;;3.70;97838.00;;;;5079745;28;20048;-61
2024/01/16 10:51:32;;;;;;;14.85;8.95;;;;;3.80;97832.00;;;;5075208;28;20493;-62
2024/01/16 10:54:03;;;;;;;16.15;8.45;;;;;3.80;97835.00;;;;5057786;28;20682;-61
2024/01/16 10:56:30;;;;;;;18.52;8.98;;;;;3.80;97826.00;;;;5077192;28;20516;-62
2024/01/16 10:59:21;;;;;;;17.33;8.27;;;;;3.90;97825.00;;;;5077641;28;20044;-61
2024/01/16 11:01:51;;;;;;;14.82;8.48;;;;;4.00;97823.00;;;;5075445;28;20094;-62
2024/01/16 11:04:20;;;;;;;20.08;9.43;;;;;4.10;97825.00;;;;5074539;28;20049;-61
2024/01/16 11:06:48;;;;;;;13.90;8.55;;;;;4.10;97835.00;;;;5076595;28;20045;-62
2024/01/16 11:09:16;;;;;;;16.33;8.10;;;;;4.20;97821.00;;;;5076937;28;20132;-62
2024/01/16 11:11:44;;;;;;;13.95;8.07;;;;;4.30;97817.00;;;;5078636;28;20053;-62
2024/01/16 11:14:13;;;;;;;16.20;8.98;;;;;4.30;97823.00;;;;5078920;28;20118;-63
2024/01/16 11:16:40;;;;;;;19.15;9.85;;;;;4.40;97818.00;;;;5078925;28;20040;-62
2024/01/16 11:19:09;;;;;;;18.67;9.25;;;;;4.30;97815.00;;;;5074502;28;20055;-62
2024/01/16 11:21:56;;;;;;;25.98;9.07;;;;;4.40;97810.00;;;;5074913;28;20443;-62
2024/01/16 11:24:23;;;;;;;14.15;7.93;;;;;4.40;97804.00;;;;5073959;28;20557;-62
2024/01/16 11:26:50;;;;;;;12.48;7.97;;;;;4.40;97808.00;;;;5072590;28;20049;-62
2024/01/16 11:29:35;;;;;;;20.10;10.15;;;;;4.70;97784.00;;;;5073368;28;20047;-62
2024/01/16 11:32:03;;;;;;;21.95;13.07;;;;;4.80;97788.00;;;;5073383;28;20052;-62
2024/01/16 11:34:50;;;;;;;17.27;9.10;;;;;4.70;97793.00;;;;5071582;28;20474;-62
2024/01/16 11:37:26;;;;;;;17.85;8.93;;;;;4.70;97793.00;;;;5073497;28;20123;-63
2024/01/16 11:40:21;;;;;;;11.82;7.90;;;;;4.70;97790.00;;;;5073336;28;20033;-62
2024/01/16 11:42:49;;;;;;;;;;;;;4.70;97786.00;;;;5074220;28;20506;-63
2024/01/16 11:45:27;;;;;;;14.77;9.73;;;;;4.80;97777.00;;;;5072968;28;19927;-62
2024/01/16 11:48:09;;;;;;;23.65;10.48;;;;;4.80;97788.00;;;;5073472;28;20052;-62
2024/01/16 11:50:36;;;;;;;16.42;8.60;;;;;4.80;97783.00;;;;5073171;28;20050;-63
2024/01/16 11:53:04;;;;;;;20.02;8.55;;;;;4.80;97774.00;;;;5073231;28;20044;-63
2024/01/16 11:55:33;;;;;;;14.55;7.30;;;;;4.70;97768.00;;;;5071780;28;20047;-63
2024/01/16 11:58:24;;;;;;;15.38;7.20;;;;;4.50;97769.00;;;;5072825;28;20124;-63
2024/01/16 12:00:52;;;;;;;15.80;7.65;;;;;4.50;97754.00;;;;5072984;28;20500;-63
2024/01/16 12:03:22;;;;;;;12.07;6.18;;;;;4.40;97766.00;;;;5071314;28;20052;-63
2024/01/16 12:06:02;;;;;;;12.38;6.15;;;;;4.20;97769.00;;;;5072659;28;20037;-63
2024/01/16 12:08:29;;;;;;;17.85;7.63;;;;;4.20;97747.00;;;;5071304;28;20045;-63
2024/01/16 12:10:57;;;;;;;13.95;6.60;;;;;4.20;97746.00;;;;5071278;28;20484;-63
2024/01/16 12:13:24;;;;;;;12.20;6.28;;;;;4.10;97746.00;;;;5070854;28;20053;-62
2024/01/16 12:16:08;;;;;;;14.02;6.68;;;;;4.20;97746.00;;;;5071467;28;20505;-63
2024/01/16 12:18:35;;;;;;;12.48;6.72;;;;;4.20;97743.00;;;;5072428;28;20623;-63
2024/01/16 12:21:11;;;;;;;15.43;6.80;;;;;4.30;97738.00;;;;5072345;28;20047;-63
2024/01/16 12:23:38;;;;;;;14.77;7.13;;;;;4.50;97732.00;;;;5070718;28;20526;-64